Time,TemperatureF,DewpointF,PressureIn,WindDirection,WindDirectionDegrees,WindSpeedMPH,WindSpeedGustMPH,Humidity,HourlyPrecipIn,Conditions,Clouds,dailyrainin,SoftwareType,DateUTC
2013-09-03 00:23:00,59.0,57.0,30.06,North,0,0.0,-999.0,93,-99.99,,,-99.99,,2013-09-03 05:23:00,
2013-09-03 00:43:00,57.0,57.0,30.06,North,0,0.0,-999.0,100,-99.99,,,-99.99,,2013-09-03 05:43:00,
2013-09-03 00:52:00,57.0,57.0,30.05,North,0,0.0,-999.0,100,-99.99,,,-99.99,,2013-09-03 05:52:00,
2013-09-03 01:02:00,57.0,57.0,30.05,North,0,0.0,-999.0,100,-99.99,,,-99.99,,2013-09-03 06:02:00,
2013-09-03 01:12:00,57.0,57.0,30.05,North,0,0.0,-999.0,100,-99.99,,,-99.99,,2013-09-03 06:12:00,
2013-09-03 01:22:00,57.0,57.0,30.05,North,0,0.0,-999.0,100,-99.99,,,-99.99,,2013-09-03 06:22:00,
2013-09-03 01:43:00,55.0,55.0,30.06,North,0,0.0,-999.0,100,-99.99,,,-99.99,,2013-09-03 06:43:00,
2013-09-03 02:22:00,55.0,55.0,30.06,North,0,0.0,-999.0,100,-99.99,,,-99.99,,2013-09-03 07:22:00,
2013-09-03 02:42:00,55.0,55.0,30.06,North,0,0.0,-999.0,100,-99.99,,,-99.99,,2013-09-03 07:42:00,
2013-09-03 03:22:00,55.0,55.0,30.07,North,0,0.0,-999.0,100,-99.99,,,-99.99,,2013-09-03 08:22:00,
2013-09-03 03:42:00,55.0,55.0,30.07,North,0,0.0,-999.0,100,-99.99,,,-99.99,,2013-09-03 08:42:00,
2013-09-03 04:22:00,55.0,55.0,30.07,North,0,0.0,-999.0,100,-99.99,,,-99.99,,2013-09-03 09:22:00,
2013-09-03 04:43:00,54.0,54.0,30.07,North,0,0.0,-999.0,100,-99.99,,,-99.99,,2013-09-03 09:43:00,
2013-09-03 05:23:00,54.0,54.0,30.08,North,0,0.0,-999.0,100,-99.99,,,-99.99,,2013-09-03 10:23:00,
2013-09-03 05:42:00,54.0,54.0,30.08,North,0,0.0,-999.0,100,-99.99,,,-99.99,,2013-09-03 10:42:00,
2013-09-03 06:23:00,54.0,54.0,30.08,North,0,0.0,-999.0,100,-99.99,,,-99.99,,2013-09-03 11:23:00,
2013-09-03 06:43:00,54.0,54.0,30.08,North,0,0.0,-999.0,100,-99.99,,,-99.99,,2013-09-03 11:43:00,
2013-09-03 07:22:00,54.0,54.0,30.08,North,0,0.0,-999.0,100,-99.99,,,-99.99,,2013-09-03 12:22:00,
2013-09-03 07:42:00,55.0,55.0,30.08,North,0,0.0,-999.0,100,-99.99,,,-99.99,,2013-09-03 12:42:00,
2013-09-03 08:22:00,55.0,55.0,30.08,SE,130,5.0,-999.0,100,-99.99,,,-99.99,,2013-09-03 13:22:00,
2013-09-03 08:42:00,57.0,57.0,30.08,SE,130,5.0,-999.0,100,-99.99,,,-99.99,,2013-09-03 13:42:00,
2013-09-03 09:21:00,63.0,61.0,30.08,SE,140,9.0,-999.0,93,-99.99,,,-99.99,,2013-09-03 14:21:00,
2013-09-03 09:42:00,64.0,61.0,30.08,SSE,150,8.0,-999.0,88,-99.99,,,-99.99,,2013-09-03 14:42:00,
2013-09-03 10:22:00,68.0,64.0,30.09,SSE,150,9.0,-999.0,88,-99.99,,,-99.99,,2013-09-03 15:22:00,
2013-09-03 10:43:00,70.0,63.0,30.08,SSE,150,12.0,16.0,77,-99.99,,,-99.99,,2013-09-03 15:43:00,
2013-09-03 11:24:00,73.0,64.0,30.07,SSE,150,10.0,20.0,73,-99.99,,,-99.99,,2013-09-03 16:24:00,
2013-09-03 11:43:00,73.0,64.0,30.07,SSE,150,13.0,18.0,73,-99.99,,,-99.99,,2013-09-03 16:43:00,
2013-09-03 11:54:00,73.0,66.0,30.07,SSE,150,13.0,21.0,78,-99.99,,,-99.99,,2013-09-03 16:54:00,
2013-09-03 12:03:00,73.0,66.0,30.07,SSE,150,13.0,21.0,78,-99.99,,,-99.99,,2013-09-03 17:03:00,
2013-09-03 12:23:00,75.0,66.0,30.07,SE,130,14.0,20.0,73,-99.99,,,-99.99,,2013-09-03 17:23:00,
2013-09-03 12:43:00,77.0,70.0,30.06,SSE,150,9.0,-999.0,78,-99.99,,,-99.99,,2013-09-03 17:43:00,
2013-09-03 12:52:00,79.0,70.0,30.06,SSE,150,9.0,-999.0,73,-99.99,,,-99.99,,2013-09-03 17:52:00,
2013-09-03 13:02:00,79.0,70.0,30.06,SSE,150,9.0,-999.0,73,-99.99,,,-99.99,,2013-09-03 18:02:00,
2013-09-03 13:22:00,79.0,70.0,30.05,SE,130,15.0,20.0,73,-99.99,,,-99.99,,2013-09-03 18:22:00,
2013-09-03 13:43:00,79.0,66.0,30.04,SE,140,10.0,16.0,65,-99.99,,,-99.99,,2013-09-03 18:43:00,
2013-09-03 14:22:00,81.0,70.0,30.04,SE,130,15.0,23.0,69,-99.99,,,-99.99,,2013-09-03 19:22:00,
2013-09-03 14:42:00,81.0,70.0,30.04,SE,130,13.0,17.0,69,-99.99,,,-99.99,,2013-09-03 19:42:00,
2013-09-03 15:11:00,81.0,70.0,30.03,SSE,150,8.0,-999.0,69,-99.99,,,-99.99,,2013-09-03 20:11:00,
2013-09-03 15:22:00,81.0,70.0,30.03,SSE,150,8.0,-999.0,69,-99.99,,,-99.99,,2013-09-03 20:22:00,
2013-09-03 15:42:00,81.0,70.0,30.02,South,170,14.0,21.0,69,-99.99,,,-99.99,,2013-09-03 20:42:00,
2013-09-03 16:22:00,81.0,72.0,30.02,SSE,160,7.0,-999.0,74,-99.99,,,-99.99,,2013-09-03 21:22:00,
2013-09-03 16:44:00,82.0,72.0,30.02,South,190,8.0,-999.0,69,-99.99,,,-99.99,,2013-09-03 21:44:00,
2013-09-03 17:23:00,81.0,72.0,30.03,South,180,8.0,-999.0,74,-99.99,,,-99.99,,2013-09-03 22:23:00,
2013-09-03 17:43:00,81.0,72.0,30.03,North,0,0.0,-999.0,74,-99.99,,,-99.99,,2013-09-03 22:43:00,
2013-09-03 17:52:00,81.0,72.0,30.03,South,170,6.0,-999.0,74,-99.99,,,-99.99,,2013-09-03 22:52:00,
2013-09-03 18:04:00,81.0,72.0,30.03,South,170,6.0,-999.0,74,-99.99,,,-99.99,,2013-09-03 23:04:00,
2013-09-03 18:22:00,79.0,70.0,30.03,South,170,7.0,-999.0,73,-99.99,,,-99.99,,2013-09-03 23:22:00,
2013-09-03 18:42:00,79.0,72.0,30.02,North,0,0.0,-999.0,78,-99.99,,,-99.99,,2013-09-03 23:42:00,
2013-09-03 19:12:00,79.0,72.0,30.03,South,170,6.0,-999.0,78,-99.99,,,-99.99,,2013-09-04 00:12:00,
2013-09-03 19:22:00,79.0,72.0,30.03,South,170,6.0,-999.0,78,-99.99,,,-99.99,,2013-09-04 00:22:00,
2013-09-03 19:42:00,75.0,72.0,30.01,SSE,160,6.0,-999.0,88,-99.99,,,-99.99,,2013-09-04 00:42:00,
2013-09-03 20:22:00,75.0,72.0,30.01,North,0,0.0,-999.0,88,-99.99,,,-99.99,,2013-09-04 01:22:00,
2013-09-03 20:42:00,73.0,72.0,30.02,North,0,0.0,-999.0,94,-99.99,,,-99.99,,2013-09-04 01:42:00,
2013-09-03 21:22:00,73.0,72.0,30.02,SSE,160,5.0,-999.0,94,-99.99,,,-99.99,,2013-09-04 02:22:00,
2013-09-03 21:43:00,72.0,70.0,30.03,North,0,0.0,-999.0,94,-99.99,,,-99.99,,2013-09-04 02:43:00,
2013-09-03 21:52:00,72.0,70.0,30.03,North,0,0.0,-999.0,94,-99.99,,,-99.99,,2013-09-04 02:52:00,
2013-09-03 22:03:00,72.0,70.0,30.03,North,0,0.0,-999.0,94,-99.99,,,-99.99,,2013-09-04 03:03:00,
2013-09-03 22:22:00,70.0,70.0,30.04,North,0,0.0,-999.0,100,-99.99,,,-99.99,,2013-09-04 03:22:00,
2013-09-03 22:44:00,70.0,70.0,30.04,North,0,0.0,-999.0,100,-99.99,,,-99.99,,2013-09-04 03:44:00,
2013-09-03 23:24:00,70.0,70.0,30.04,North,0,0.0,-999.0,100,-99.99,,,-99.99,,2013-09-04 04:24:00,
2013-09-03 23:44:00,70.0,70.0,30.04,North,0,0.0,-999.0,100,-99.99,,,-99.99,,2013-09-04 04:44:00,
2013-09-03 23:54:00,68.0,68.0,30.04,North,0,0.0,-999.0,100,-99.99,,,-99.99,,2013-09-04 04:54:00,